Time,TemperatureF,DewpointF,PressureIn,WindDirection,WindDirectionDegrees,WindSpeedMPH,WindSpeedGustMPH,Humidity,HourlyPrecipIn,Conditions,Clouds,dailyrainin,SoftwareType,DateUTC
2015-07-02 00:00:00,76.1,62.6,29.91,SSW,192,7.0,12.0,63,0.00,SCT,,0.00,WeatherDisplay:10.37,2015-07-01 23:00:00,
2015-07-02 00:10:00,75.6,62.5,29.91,SSW,208,5.0,13.0,64,0.00,SCT,,0.00,WeatherDisplay:10.37,2015-07-01 23:10:00,
2015-07-02 00:18:00,75.6,62.1,29.91,SSW,210,5.0,8.0,63,0.00,SCT,,0.00,WeatherDisplay:10.37,2015-07-01 23:18:00,
2015-07-02 00:30:00,74.8,61.8,29.91,SSW,203,7.0,9.0,64,0.00,SCT,,0.00,WeatherDisplay:10.37,2015-07-01 23:30:00,
2015-07-02 00:40:00,74.5,62.8,29.91,SSW,202,7.0,11.0,67,0.00,SCT,,0.00,WeatherDisplay:10.37,2015-07-01 23:40:00,
2015-07-02 00:50:00,74.1,62.0,29.91,SSW,192,6.0,15.0,66,0.00,SCT,,0.00,WeatherDisplay:10.37,2015-07-01 23:50:00,
2015-07-02 01:00:00,73.6,61.9,29.91,SSW,199,8.0,12.0,67,0.00,SCT,,0.00,WeatherDisplay:10.37,2015-07-02 00:00:00,
2015-07-02 01:10:00,73.0,61.4,29.91,SSW,207,5.0,12.0,67,0.00,SCT,,0.00,WeatherDisplay:10.37,2015-07-02 00:10:00,
2015-07-02 01:20:00,72.7,61.9,29.91,SSW,211,6.0,9.0,69,0.00,SCT,,0.00,WeatherDisplay:10.37,2015-07-02 00:20:00,
2015-07-02 01:30:00,72.1,61.4,29.94,SW,217,6.0,12.0,69,0.00,SCT,,0.00,WeatherDisplay:10.37,2015-07-02 00:30:00,
2015-07-02 01:40:00,71.6,60.9,29.94,SSW,201,13.0,16.0,69,0.00,SCT,,0.00,WeatherDisplay:10.37,2015-07-02 00:40:00,
2015-07-02 01:50:00,70.9,60.6,29.94,SSW,212,8.0,9.0,70,0.00,SCT,,0.00,WeatherDisplay:10.37,2015-07-02 00:50:00,
2015-07-02 02:00:00,70.5,61.1,29.94,SSW,203,7.0,12.0,72,0.00,SCT,,0.00,WeatherDisplay:10.37,2015-07-02 01:00:00,
2015-07-02 02:10:00,70.0,59.7,29.94,SW,219,6.0,9.0,70,0.00,SCT,,0.00,WeatherDisplay:10.37,2015-07-02 01:10:00,
2015-07-02 02:20:00,69.3,59.1,29.94,SW,231,6.0,12.0,70,0.00,SCT,,0.00,WeatherDisplay:10.37,2015-07-02 01:20:00,
2015-07-02 02:30:00,68.9,58.3,29.94,SW,224,9.0,12.0,69,0.00,SCT,,0.00,WeatherDisplay:10.37,2015-07-02 01:30:00,
2015-07-02 02:40:00,68.2,57.6,29.94,SSW,210,6.0,12.0,69,0.00,SCT,,0.00,WeatherDisplay:10.37,2015-07-02 01:40:00,
2015-07-02 02:50:00,67.8,57.3,29.94,SSW,212,10.0,11.0,69,0.00,SCT,,0.00,WeatherDisplay:10.37,2015-07-02 01:50:00,
2015-07-02 03:00:00,67.3,56.8,29.94,SW,216,6.0,13.0,69,0.00,SCT,,0.00,WeatherDisplay:10.37,2015-07-02 02:00:00,
2015-07-02 03:10:00,66.7,56.2,29.94,South,181,5.0,8.0,69,0.00,SCT,,0.00,WeatherDisplay:10.37,2015-07-02 02:10:00,
2015-07-02 03:20:00,66.7,56.6,29.94,South,180,7.0,8.0,70,0.00,SCT,,0.00,WeatherDisplay:10.37,2015-07-02 02:20:00,
2015-07-02 03:30:00,66.6,56.5,29.94,South,190,2.0,8.0,70,0.00,SCT,,0.00,WeatherDisplay:10.37,2015-07-02 02:30:00,
2015-07-02 03:40:00,66.2,56.1,29.94,SW,219,6.0,11.0,70,0.00,SCT,,0.00,WeatherDisplay:10.37,2015-07-02 02:40:00,
2015-07-02 03:50:00,65.8,56.2,29.94,SSW,206,3.0,9.0,71,0.00,SCT,,0.00,WeatherDisplay:10.37,2015-07-02 02:50:00,
2015-07-02 04:00:00,64.9,55.7,29.94,SSW,205,5.0,13.0,72,0.00,SCT,,0.00,WeatherDisplay:10.37,2015-07-02 03:00:00,
2015-07-02 04:10:00,64.9,55.7,29.94,SSW,194,5.0,8.0,72,0.00,SCT,,0.00,WeatherDisplay:10.37,2015-07-02 03:10:00,
2015-07-02 04:20:00,64.8,55.5,29.94,SW,219,9.0,12.0,72,0.00,SCT,,0.00,WeatherDisplay:10.37,2015-07-02 03:20:00,
2015-07-02 04:30:00,64.2,55.4,29.97,SW,229,5.0,10.0,73,0.00,SCT,,0.00,WeatherDisplay:10.37,2015-07-02 03:30:00,
2015-07-02 04:40:00,64.2,55.0,29.97,SW,233,6.0,10.0,72,0.00,SCT,,0.00,WeatherDisplay:10.37,2015-07-02 03:40:00,
2015-07-02 04:50:00,63.9,55.0,29.97,SSW,206,5.0,7.0,73,0.00,SCT,,0.00,WeatherDisplay:10.37,2015-07-02 03:50:00,
2015-07-02 05:00:00,63.7,54.9,29.97,SSW,212,6.0,8.0,73,0.00,SCT,,0.00,WeatherDisplay:10.37,2015-07-02 04:00:00,
2015-07-02 05:10:00,63.7,55.2,29.97,SSW,208,1.0,8.0,74,0.00,SCT,,0.00,WeatherDisplay:10.37,2015-07-02 04:10:00,
2015-07-02 05:20:00,63.7,55.2,29.97,South,191,3.0,7.0,74,0.00,SCT,,0.00,WeatherDisplay:10.37,2015-07-02 04:20:00,
2015-07-02 05:30:00,63.1,55.1,29.97,SSW,212,5.0,7.0,75,0.00,SCT,,0.00,WeatherDisplay:10.37,2015-07-02 04:30:00,
2015-07-02 05:40:00,63.3,55.2,29.97,SSW,194,0.0,6.0,75,0.00,SCT,,0.00,WeatherDisplay:10.37,2015-07-02 04:40:00,
2015-07-02 05:50:00,63.0,54.5,30.00,SSW,194,3.0,6.0,74,0.00,SCT,,0.00,WeatherDisplay:10.37,2015-07-02 04:50:00,
2015-07-02 06:00:00,63.0,54.5,30.00,WSW,243,5.0,5.0,74,0.00,SCT,,0.00,WeatherDisplay:10.37,2015-07-02 05:00:00,
2015-07-02 06:10:00,63.0,54.9,30.00,SW,232,5.0,6.0,75,0.00,SCT,,0.00,WeatherDisplay:10.37,2015-07-02 05:10:00,
2015-07-02 06:20:00,63.2,55.1,30.00,SW,222,1.0,5.0,75,0.00,SCT,,0.00,WeatherDisplay:10.37,2015-07-02 05:20:00,
2015-07-02 06:30:00,63.5,55.4,30.00,SSW,198,1.0,4.0,75,0.00,SCT,,0.00,WeatherDisplay:10.37,2015-07-02 05:30:00,
2015-07-02 06:40:00,63.5,55.4,30.00,SSW,206,3.0,4.0,75,0.00,SCT,,0.00,WeatherDisplay:10.37,2015-07-02 05:40:00,
2015-07-02 06:50:00,63.7,55.6,30.00,SSE,154,0.0,4.0,75,0.00,SCT,,0.00,WeatherDisplay:10.37,2015-07-02 05:50:00,
2015-07-02 07:00:00,64.2,56.1,30.03,SSE,148,0.0,3.0,75,0.00,SCT,,0.00,WeatherDisplay:10.37,2015-07-02 06:00:00,
2015-07-02 07:10:00,64.7,56.2,30.03,SW,228,0.0,2.0,74,0.00,SCT,,0.00,WeatherDisplay:10.37,2015-07-02 06:10:00,
2015-07-02 07:20:00,65.5,57.0,30.03,SW,229,3.0,5.0,74,0.00,SCT,,0.00,WeatherDisplay:10.37,2015-07-02 06:20:00,
2015-07-02 07:30:00,65.8,56.9,30.06,SSE,168,1.0,7.0,73,0.00,SCT,,0.00,WeatherDisplay:10.37,2015-07-02 06:30:00,
2015-07-02 07:40:00,64.9,56.0,30.06,West,263,2.0,5.0,73,0.00,SCT,,0.00,WeatherDisplay:10.37,2015-07-02 06:40:00,
2015-07-02 07:50:00,65.3,56.4,30.06,South,172,0.0,2.0,73,0.00,SCT,,0.00,WeatherDisplay:10.37,2015-07-02 06:50:00,
2015-07-02 08:00:00,65.8,56.9,30.03,WSW,241,6.0,6.0,73,0.00,SCT,,0.00,WeatherDisplay:10.37,2015-07-02 07:00:00,
2015-07-02 08:10:00,66.2,56.9,30.03,SW,225,7.0,7.0,72,0.00,SCT,,0.00,WeatherDisplay:10.37,2015-07-02 07:10:00,
2015-07-02 08:20:00,66.5,57.2,30.03,WSW,251,5.0,7.0,72,0.00,SCT,,0.00,WeatherDisplay:10.37,2015-07-02 07:20:00,
2015-07-02 08:30:00,66.2,57.3,30.03,WSW,256,3.0,6.0,73,0.00,SCT,,0.00,WeatherDisplay:10.37,2015-07-02 07:30:00,
2015-07-02 08:40:00,65.9,57.4,30.03,West,260,3.0,6.0,74,0.00,SCT,,0.00,WeatherDisplay:10.37,2015-07-02 07:40:00,
2015-07-02 08:50:00,65.8,56.9,30.03,SW,224,3.0,5.0,73,0.00,SCT,,0.00,WeatherDisplay:10.37,2015-07-02 07:50:00,
2015-07-02 09:00:00,66.0,57.9,30.03,SW,232,3.0,8.0,75,0.00,SCT,,0.00,WeatherDisplay:10.37,2015-07-02 08:00:00,
2015-07-02 09:10:00,66.0,57.5,30.03,WSW,258,5.0,8.0,74,0.00,SCT,,0.00,WeatherDisplay:10.37,2015-07-02 08:10:00,
2015-07-02 09:20:00,66.4,57.8,30.03,SW,216,2.0,6.0,74,0.00,SCT,,0.00,WeatherDisplay:10.37,2015-07-02 08:20:00,
2015-07-02 09:30:00,67.1,58.5,30.06,SW,227,3.0,9.0,74,0.00,SCT,,0.00,WeatherDisplay:10.37,2015-07-02 08:30:00,
2015-07-02 09:40:00,67.0,58.5,30.06,SSW,200,3.0,8.0,74,0.00,SCT,,0.00,WeatherDisplay:10.37,2015-07-02 08:40:00,
2015-07-02 09:50:00,66.9,58.0,30.06,SW,230,1.0,6.0,73,0.00,SCT,,0.00,WeatherDisplay:10.37,2015-07-02 08:50:00,
2015-07-02 10:00:00,66.7,58.2,30.06,SSW,201,6.0,6.0,74,0.00,SCT,,0.00,WeatherDisplay:10.37,2015-07-02 09:00:00,
2015-07-02 10:10:00,66.7,58.2,30.06,SSW,194,5.0,10.0,74,0.00,SCT,,0.00,WeatherDisplay:10.37,2015-07-02 09:10:00,
2015-07-02 10:20:00,66.2,57.7,30.06,SW,227,6.0,9.0,74,0.00,SCT,,0.00,WeatherDisplay:10.37,2015-07-02 09:20:00,
2015-07-02 10:30:00,65.8,57.7,30.06,SSW,206,0.0,9.0,75,0.00,SCT,,0.00,WeatherDisplay:10.37,2015-07-02 09:30:00,
2015-07-02 10:40:00,66.1,57.6,30.06,SW,233,2.0,7.0,74,0.00,SCT,,0.00,WeatherDisplay:10.37,2015-07-02 09:40:00,
2015-07-02 10:50:00,66.2,58.0,30.06,SW,233,0.0,5.0,75,0.00,SCT,,0.00,WeatherDisplay:10.37,2015-07-02 09:50:00,
2015-07-02 11:00:00,66.0,57.9,30.03,NW,311,1.0,7.0,75,0.00,SCT,,0.00,WeatherDisplay:10.37,2015-07-02 10:00:00,
2015-07-02 11:10:00,66.4,58.2,30.03,South,173,1.0,5.0,75,0.00,SCT,,0.00,WeatherDisplay:10.37,2015-07-02 10:10:00,
2015-07-02 11:20:00,66.7,58.6,30.06,ESE,110,0.0,5.0,75,0.00,SCT,,0.00,WeatherDisplay:10.37,2015-07-02 10:20:00,
2015-07-02 11:30:00,66.7,58.6,30.06,East,85,0.0,2.0,75,0.00,SCT,,0.00,WeatherDisplay:10.37,2015-07-02 10:30:00,
2015-07-02 11:40:00,66.9,58.7,30.06,ESE,121,0.0,2.0,75,0.00,SCT,,0.00,WeatherDisplay:10.37,2015-07-02 10:40:00,
2015-07-02 11:50:00,66.7,58.6,30.06,East,85,3.0,4.0,75,0.00,SCT,,0.00,WeatherDisplay:10.37,2015-07-02 10:50:00,
2015-07-02 12:00:00,66.7,59.3,30.06,SSE,153,3.0,8.0,77,0.00,SCT,,0.00,WeatherDisplay:10.37,2015-07-02 11:00:00,
2015-07-02 12:10:00,66.7,59.3,30.06,SSE,162,1.0,4.0,77,0.00,SCT,,0.00,WeatherDisplay:10.37,2015-07-02 11:10:00,
2015-07-02 12:20:00,66.7,58.9,30.09,South,184,1.0,6.0,76,0.00,SCT,,0.00,WeatherDisplay:10.37,2015-07-02 11:20:00,
2015-07-02 12:30:00,66.9,59.1,30.09,SSW,194,6.0,7.0,76,0.00,SCT,,0.00,WeatherDisplay:10.37,2015-07-02 11:30:00,
2015-07-02 12:40:00,67.1,58.9,30.09,SSW,204,7.0,7.0,75,0.00,SCT,,0.00,WeatherDisplay:10.37,2015-07-02 11:40:00,
2015-07-02 12:50:00,67.2,59.0,30.09,SSW,207,6.0,7.0,75,0.00,SCT,,0.00,WeatherDisplay:10.37,2015-07-02 11:50:00,
2015-07-02 13:00:00,67.3,59.1,30.06,WSW,247,5.0,6.0,75,0.00,SCT,,0.00,WeatherDisplay:10.37,2015-07-02 12:00:00,
2015-07-02 13:10:00,67.8,59.6,30.06,SW,222,6.0,7.0,75,0.00,SCT,,0.00,WeatherDisplay:10.37,2015-07-02 12:10:00,
2015-07-02 13:20:00,68.0,59.4,30.06,SSW,194,3.0,8.0,74,0.00,SCT,,0.00,WeatherDisplay:10.37,2015-07-02 12:20:00,
2015-07-02 13:30:00,69.1,60.4,30.06,SSW,206,1.0,6.0,74,0.00,SCT,,0.00,WeatherDisplay:10.37,2015-07-02 12:30:00,
2015-07-02 13:40:00,69.2,60.2,30.06,SW,230,2.0,5.0,73,0.00,SCT,,0.00,WeatherDisplay:10.37,2015-07-02 12:40:00,